St. Simon — WDI9604 — position and weather

sailwx.info

Track history (hours):
 
Tides and Currents Weather Stations Pressure Air Temp Water Temp Dewpoint Dewpoint Depression Visibility Wind Speed Wind Dir Waves Ship Positions

St. Simon

Owner: Marquette Transportation Company Gulf-Inland, LLC, Jefferson, LA. More information available from US FCC via Universal Licensing System and Coast Guard Vessel Documentation Center.

Last reported at 2017-Nov-24 03:30 UTC. Time now 2017-Nov-24 03:40 UTC.
Position N 30°04' W 093°21'.

Length 26 m; draft 3.2 m.

Type: Ship (hazmat cat B). MMSI: 367750340.

Date/timePositionNaut miles runAvg speedWind from/ knotsBaromVisibWave heightAir tempDewpointWater temp
2017-Nov-24 03:30N 30°04' W 093°21'0 0.7
2017-Nov-24 03:00N 30°04' W 093°21'2 3.8
2017-Nov-24 02:30N 30°06' W 093°19'2 3.0
2017-Nov-24 02:00N 30°05' W 093°18'0 0.6
2017-Nov-24 01:30N 30°05' W 093°17'1 2.3
2017-Nov-24 01:00N 30°04' W 093°16'0 0.3
2017-Nov-24 00:30N 30°04' W 093°16'0 0.6
2017-Nov-24 00:00N 30°04' W 093°16'1 2.8
2017-Nov-23 23:30N 30°03' W 093°16'1 1.9
2017-Nov-23 23:00N 30°02' W 093°15'0 0.0
2017-Nov-23 22:30N 30°02' W 093°15'0 0.0
2017-Nov-23 22:00N 30°02' W 093°15'0 0.0
2017-Nov-23 21:30N 30°02' W 093°15'0 0.1
2017-Nov-23 21:00N 30°02' W 093°15'0 0.1
2017-Nov-23 20:30N 30°02' W 093°15'0 0.3
2017-Nov-23 20:00N 30°02' W 093°15'1 2.9
2017-Nov-23 19:30N 30°01' W 093°14'1 2.9
2017-Nov-23 19:00N 29°59' W 093°13'1 1.0
2017-Nov-23 18:30N 29°59' W 093°12'0 0.5
2017-Nov-23 18:00N 29°59' W 093°12'0 0.7
2017-Nov-23 17:30N 29°59' W 093°12'0 0.2
2017-Nov-23 17:00N 29°58' W 093°12'1 1.9
2017-Nov-23 16:30N 29°58' W 093°11'2 4.2
2017-Nov-23 16:00N 29°56' W 093°10'2 4.2
2017-Nov-23 15:30N 29°56' W 093°07'2 3.9
2017-Nov-23 14:59N 29°56' W 093°05'2 4.2
2017-Nov-23 14:30N 29°56' W 093°03'35 4.1
2017-Nov-23 05:58N 29°52' W 092°23'2 3.9
2017-Nov-23 05:25N 29°51' W 092°21'1 2.5
2017-Nov-23 05:00N 29°50' W 092°20'2 3.5
2017-Nov-23 04:30N 29°50' W 092°18'2 4.0
2017-Nov-23 04:00N 29°49' W 092°16'2 4.4
2017-Nov-23 03:30N 29°48' W 092°14'2 3.9
2017-Nov-23 03:00N 29°47' W 092°12'1 2.4
2017-Nov-23 02:30N 29°47' W 092°10'2 4.3
2017-Nov-23 02:00N 29°47' W 092°08'2 4.2
2017-Nov-23 01:30N 29°48' W 092°06'2 4.0
2017-Nov-23 01:00N 29°49' W 092°04'2 4.0
2017-Nov-23 00:30N 29°49' W 092°01'2 4.3
2017-Nov-23 00:00N 29°50' W 091°59'  
Track history (hours):
 
Tides and Currents Weather Stations Pressure Air Temp Water Temp Dewpoint Dewpoint Depression Visibility Wind Speed Wind Dir Waves Ship Positions

St. Simon

Owner: Marquette Transportation Company Gulf-Inland, LLC, Jefferson, LA. More information available from US FCC via Universal Licensing System and Coast Guard Vessel Documentation Center.

Last reported at 2017-Nov-24 03:30 UTC. Time now 2017-Nov-24 03:40 UTC.
Position N 30°04' W 093°21'.

Length 26 m; draft 3.2 m.

Type: Ship (hazmat cat B). MMSI: 367750340.

Date/timePositionNaut miles runAvg speedWind from/ knotsBaromVisibWave heightAir tempDewpointWater temp
2017-Nov-24 03:30N 30°04' W 093°21'0 0.7
2017-Nov-24 03:00N 30°04' W 093°21'2 3.8
2017-Nov-24 02:30N 30°06' W 093°19'2 3.0
2017-Nov-24 02:00N 30°05' W 093°18'0 0.6
2017-Nov-24 01:30N 30°05' W 093°17'1 2.3
2017-Nov-24 01:00N 30°04' W 093°16'0 0.3
2017-Nov-24 00:30N 30°04' W 093°16'0 0.6
2017-Nov-24 00:00N 30°04' W 093°16'1 2.8
2017-Nov-23 23:30N 30°03' W 093°16'1 1.9
2017-Nov-23 23:00N 30°02' W 093°15'0 0.0
2017-Nov-23 22:30N 30°02' W 093°15'0 0.0
2017-Nov-23 22:00N 30°02' W 093°15'0 0.0
2017-Nov-23 21:30N 30°02' W 093°15'0 0.1
2017-Nov-23 21:00N 30°02' W 093°15'0 0.1
2017-Nov-23 20:30N 30°02' W 093°15'0 0.3
2017-Nov-23 20:00N 30°02' W 093°15'1 2.9
2017-Nov-23 19:30N 30°01' W 093°14'1 2.9
2017-Nov-23 19:00N 29°59' W 093°13'1 1.0
2017-Nov-23 18:30N 29°59' W 093°12'0 0.5
2017-Nov-23 18:00N 29°59' W 093°12'0 0.7
2017-Nov-23 17:30N 29°59' W 093°12'0 0.2
2017-Nov-23 17:00N 29°58' W 093°12'1 1.9
2017-Nov-23 16:30N 29°58' W 093°11'2 4.2
2017-Nov-23 16:00N 29°56' W 093°10'2 4.2
2017-Nov-23 15:30N 29°56' W 093°07'2 3.9
2017-Nov-23 14:59N 29°56' W 093°05'2 4.2
2017-Nov-23 14:30N 29°56' W 093°03'35 4.1
2017-Nov-23 05:58N 29°52' W 092°23'2 3.9
2017-Nov-23 05:25N 29°51' W 092°21'1 2.5
2017-Nov-23 05:00N 29°50' W 092°20'2 3.5
2017-Nov-23 04:30N 29°50' W 092°18'2 4.0
2017-Nov-23 04:00N 29°49' W 092°16'2 4.4
2017-Nov-23 03:30N 29°48' W 092°14'2 3.9
2017-Nov-23 03:00N 29°47' W 092°12'1 2.4
2017-Nov-23 02:30N 29°47' W 092°10'2 4.3
2017-Nov-23 02:00N 29°47' W 092°08'2 4.2
2017-Nov-23 01:30N 29°48' W 092°06'2 4.0
2017-Nov-23 01:00N 29°49' W 092°04'2 4.0
2017-Nov-23 00:30N 29°49' W 092°01'2 4.3
2017-Nov-23 00:00N 29°50' W 091°59'  

Dump ship's entire track history